Latest Weather Observations for Cocos Island

IDW60801

Issued at 7:33 am WST Friday 9 December 2016 (issued every 30 minutes, with the page automatically refreshed every 10 minutes)

About weather observations | Map of weather stations | Latest weather observations for WA | Other Formats
Station Details ID: 200284 Name: COCOS ISLAND AIRPORT Lat: -12.19 Lon: 96.83 Height: 3.0 m
Data from the previous 72 hours. | See also: Recent months at Cocos Island
Date/Time
WST
Temp
°C
App
Temp
°C
Dew
Point
°C
Rel
Hum
%
Delta-T
°C
Wind Press
QNH
hPa
Press
MSL
hPa
Rain since
9am
mm
Dir  Spd
km/h
Gust
km/h
Spd
kts
Gust
kts
09/07:30am 25.9 27.1 21.5 76 2.9 ESE 17 24 9 13 1009.3 - 0.0
09/07:01am 25.8 26.4 21.3 76 3.0 ESE 20 26 11 14 1009.0 - 0.0
09/07:00am 25.8 26.3 21.1 75 3.1 ESE 20 26 11 14 1009.0 - 0.0
09/06:36am 25.8 26.6 21.4 76 2.9 ESE 19 24 10 13 1008.9 - 0.0
09/06:30am 25.7 27.1 21.8 79 2.6 SE 17 22 9 12 1008.9 - 0.0
09/06:00am 25.7 26.6 21.5 77 2.8 SE 19 22 10 12 1008.6 - 0.0
09/05:30am 25.8 26.4 21.4 76 2.9 SE 20 26 11 14 1008.5 - 0.0
09/05:00am 25.9 25.6 21.1 75 3.2 SE 24 30 13 16 1008.4 1008.3 0.0
09/04:30am 25.9 25.7 20.6 72 3.5 SE 22 28 12 15 1008.5 - 0.0
09/04:00am 25.7 26.4 21.5 77 2.8 SE 20 26 11 14 1008.7 - 0.0
09/03:30am 25.8 25.6 21.3 76 3.0 SE 24 32 13 17 1008.9 - 0.0
09/03:00am 25.9 25.5 20.9 74 3.3 SE 24 30 13 16 1009.2 - 0.0
09/02:30am 25.7 25.5 21.2 76 3.0 SE 24 28 13 15 1009.5 - 0.0
09/02:00am 25.7 25.8 21.8 79 2.6 SE 24 30 13 16 1009.8 1009.7 0.0
09/01:30am 25.7 25.4 21.8 79 2.6 SE 26 32 14 17 1010.1 - 0.0
09/01:00am 25.6 24.7 21.4 77 2.8 SE 28 35 15 19 1010.5 - 0.0
09/12:30am 25.6 25.0 22.0 80 2.4 SE 28 35 15 19 1010.8 - 0.0
09/12:00am 25.5 25.9 22.4 83 2.1 ESE 24 33 13 18 1011.0 - 0.0
 
Date/Time
WST
Temp
°C
App
Temp
°C
Dew
Point
°C
Rel
Hum
%
Delta-T
°C
Wind Press
QNH
hPa
Press
MSL
hPa
Rain since
9am
mm
Dir  Spd
km/h
Gust
km/h
Spd
kts
Gust
kts
08/11:30pm 25.9 25.6 22.6 82 2.2 SE 28 33 15 18 1011.1 - 0.0
08/11:00pm 25.9 25.6 22.5 81 2.3 ESE 28 33 15 18 1010.8 1010.7 0.0
08/10:40pm 25.8 25.8 22.4 81 2.3 ESE 26 33 14 18 1010.9 - 0.0
08/10:30pm 25.9 25.2 22.5 81 2.3 SE 30 39 16 21 1010.8 - 0.0
08/10:09pm 26.2 26.5 23.0 82 2.2 ESE 26 35 14 19 1010.7 - 0.0
08/10:00pm 26.3 26.1 22.0 77 2.9 SE 26 32 14 17 1010.6 - 0.0
08/09:30pm 26.4 26.2 22.1 77 2.9 SE 26 33 14 18 1010.4 - 0.0
08/09:00pm 26.4 26.1 21.9 76 3.0 SE 26 32 14 17 1010.2 - 0.0
08/08:30pm 26.4 26.2 22.1 77 2.9 SE 26 32 14 17 1009.9 - 0.0
08/08:00pm 26.4 25.5 21.4 74 3.3 SE 28 32 15 17 1009.6 1009.5 0.0
08/07:30pm 26.6 26.4 21.3 72 3.5 SE 24 32 13 17 1009.1 - 0.0
08/07:00pm 27.0 26.8 21.3 71 3.8 SSE 24 32 13 17 1008.7 - 0.0
08/06:30pm 27.2 26.4 20.0 64 4.7 SSE 24 35 13 19 1008.5 - 0.0
08/06:00pm 27.8 26.8 20.4 64 4.9 SSE 26 35 14 19 1008.2 - 0.0
08/05:30pm 27.7 26.7 20.4 64 4.8 SSE 26 35 14 19 1008.3 - 0.0
08/05:00pm 27.7 27.1 20.4 64 4.8 SSE 24 35 13 19 1008.3 1008.2 0.0
08/04:30pm 27.9 26.6 19.8 61 5.3 SSE 26 37 14 20 1008.0 - 0.0
08/04:00pm 28.3 27.7 20.6 63 5.1 SSE 24 33 13 18 1008.2 - 0.0
08/03:30pm 27.8 26.9 20.7 65 4.7 SE 26 35 14 19 1008.5 - 0.0
08/03:00pm 28.2 27.1 21.1 65 4.7 SE 28 37 15 20 1008.7 - 0.0
08/02:30pm 28.5 27.4 21.1 64 4.9 SE 28 37 15 20 1009.0 - 0.0
08/02:00pm 28.5 27.4 21.1 64 4.9 SE 28 33 15 18 1009.4 1009.3 0.0
08/01:30pm 28.7 27.5 20.9 62 5.2 SE 28 37 15 20 1009.7 - 0.0
08/01:00pm 28.3 27.1 20.9 64 4.9 SE 28 39 15 21 1009.8 - 0.0
08/12:30pm 28.3 27.5 21.6 67 4.5 SE 28 41 15 22 1009.9 - 0.0
08/12:00pm 28.6 28.1 21.4 65 4.8 SSE 26 37 14 20 1010.1 - 0.0
08/11:30am 28.0 27.1 20.6 64 4.9 SSE 26 33 14 18 1010.3 - 0.0
08/11:00am 27.8 27.2 21.3 67 4.3 SE 26 35 14 19 1010.4 1010.3 0.0
08/10:30am 27.9 27.6 21.8 69 4.1 SSE 26 33 14 18 1010.5 - 0.0
08/10:00am 27.1 26.3 20.9 69 4.1 SE 26 33 14 18 1010.6 - 0.0
08/09:30am 26.7 26.3 20.9 70 3.8 SSE 24 33 13 18 1010.5 - 0.0
08/09:00am 26.5 25.8 21.1 72 3.6 SSE 26 35 14 19 1010.4 - 0.0
08/08:30am 26.2 25.7 21.4 75 3.2 SE 26 35 14 19 1010.2 - 0.0
08/08:00am 25.7 25.5 21.3 76 2.9 SE 24 33 13 18 1010.0 1009.9 0.0
08/07:30am 25.4 24.9 20.7 75 3.1 SE 24 32 13 17 1009.6 - 0.0
08/07:00am 25.2 25.2 20.9 77 2.8 SE 22 32 12 17 1009.1 - 0.0
08/06:30am 25.2 24.9 21.1 78 2.7 SE 24 33 13 18 1008.7 - 0.0
08/06:13am 25.1 25.1 21.0 78 2.7 SSE 22 33 12 18 1008.5 - 0.0
08/06:00am 25.1 24.7 21.0 78 2.7 SE 24 32 13 17 1008.4 - 0.0
08/05:54am 25.2 24.2 21.3 79 2.6 SE 28 35 15 19 1008.4 - 0.0
08/05:30am 25.5 24.3 20.8 75 3.1 SE 28 33 15 18 1008.5 - 0.0
08/05:00am 25.6 24.3 20.6 74 3.3 SE 28 37 15 20 1008.6 1008.5 0.0
08/04:30am 25.6 25.2 20.9 75 3.1 ESE 24 33 13 18 1008.7 - 0.0
08/04:00am 25.6 24.5 21.1 76 3.0 SE 28 33 15 18 1008.9 - 0.0
08/03:30am 25.3 25.1 22.0 82 2.2 SE 26 32 14 17 1009.1 - 0.0
08/03:00am 25.6 25.5 21.4 77 2.8 SE 24 30 13 16 1009.4 - 0.0
08/02:30am 25.5 25.4 21.4 78 2.7 SE 24 32 13 17 1009.7 - 0.0
08/02:00am 25.7 25.1 21.3 76 2.9 SE 26 32 14 17 1010.1 1010.0 0.0
08/01:30am 25.8 24.9 20.6 73 3.4 SE 26 32 14 17 1010.5 - 0.0
08/01:00am 25.7 24.8 20.7 74 3.3 ESE 26 35 14 19 1010.7 - 0.0
08/12:30am 25.8 25.4 20.9 74 3.2 ESE 24 33 13 18 1010.9 - 0.0
08/12:00am 25.8 25.4 20.9 74 3.2 ESE 24 33 13 18 1011.3 - 0.0
 
Date/Time
WST
Temp
°C
App
Temp
°C
Dew
Point
°C
Rel
Hum
%
Delta-T
°C
Wind Press
QNH
hPa
Press
MSL
hPa
Rain since
9am
mm
Dir  Spd
km/h
Gust
km/h
Spd
kts
Gust
kts
07/11:30pm 25.9 25.5 20.9 74 3.3 ESE 24 32 13 17 1011.2 - 0.0
07/11:00pm 25.9 25.8 21.5 76 2.9 SE 24 32 13 17 1011.3 1011.2 0.0
07/10:30pm 25.8 25.5 21.1 75 3.1 ESE 24 32 13 17 1011.1 - 0.0
07/10:00pm 26.0 25.9 21.5 76 3.0 ESE 24 33 13 18 1010.9 - 0.0
07/09:57pm 26.0 25.9 21.5 76 3.0 ESE 24 33 13 18 1010.9 - 0.0
07/09:41pm 26.1 25.8 21.8 77 2.9 ESE 26 35 14 19 1010.8 - 0.0
07/09:30pm 26.1 25.4 21.8 77 2.9 ESE 28 35 15 19 1010.6 - 0.0
07/09:00pm 26.2 25.3 21.4 75 3.2 ESE 28 33 15 18 1010.3 - 0.0
07/08:30pm 26.4 26.2 20.6 70 3.8 ESE 22 30 12 16 1010.0 - 0.0
07/08:00pm 26.5 27.1 21.4 73 3.4 ESE 20 30 11 16 1009.8 1009.7 0.0
07/07:30pm 26.6 27.0 21.0 71 3.7 ESE 20 26 11 14 1009.5 - 0.0
07/07:00pm 26.9 26.7 21.2 71 3.8 SE 24 32 13 17 1009.2 - 0.0
07/06:30pm 27.4 27.1 21.1 68 4.2 ESE 24 32 13 17 1009.0 - 0.0
07/06:00pm 27.6 26.9 21.1 67 4.3 SE 26 32 14 17 1008.9 - 0.0
07/05:30pm 27.6 27.6 21.6 70 4.0 SE 24 30 13 16 1008.9 - 0.0
07/05:00pm 28.0 28.0 20.9 65 4.7 SE 22 30 12 16 1008.9 1008.8 0.0
07/04:30pm 28.3 27.8 20.7 63 5.0 SE 24 32 13 17 1008.8 - 0.0
07/04:00pm 28.3 28.3 21.6 67 4.5 SE 24 30 13 16 1008.9 - 0.0
07/03:30pm 28.1 27.4 20.2 62 5.2 SE 24 30 13 16 1009.1 - 0.0
07/03:00pm 28.2 27.6 20.5 63 5.1 SE 24 30 13 16 1009.3 - 0.0
07/02:30pm 28.4 28.3 20.7 63 5.1 SE 22 30 12 16 1009.6 - 0.0
07/02:00pm 28.0 27.4 19.7 60 5.4 SE 22 30 12 16 1009.9 1009.8 0.0
07/01:30pm 27.9 27.4 20.8 65 4.7 SE 24 30 13 16 1010.3 - 0.0
07/01:00pm 28.2 28.3 21.1 65 4.7 SE 22 30 12 16 1010.6 - 0.0
07/12:30pm 28.0 28.2 21.4 67 4.4 SE 22 28 12 15 1011.0 - 0.0
07/12:00pm 28.4 29.2 21.4 66 4.7 SE 19 24 10 13 1011.5 - 0.0
07/11:30am 28.1 28.6 21.2 66 4.6 SE 20 24 11 13 1011.8 - 0.0
07/11:00am 27.9 28.3 21.0 66 4.6 SE 20 26 11 14 1011.9 1011.8 0.0
07/10:30am 27.3 27.6 20.8 67 4.3 SE 20 24 11 13 1011.8 - 0.0
07/10:00am 27.4 27.5 21.1 68 4.2 SE 22 26 12 14 1011.8 - 0.0
07/09:30am 27.4 27.8 20.7 67 4.4 SE 19 24 10 13 1011.7 - 0.0
07/09:00am 27.0 27.3 20.3 66 4.4 SE 19 24 10 13 1011.6 - 0.0
07/08:30am 26.3 26.6 20.5 70 3.8 SE 19 22 10 12 1011.5 - 0.0
07/08:00am 25.7 26.2 20.0 71 3.7 SE 17 20 9 11 1011.3 1011.2 0.0
07/07:30am 25.3 26.7 20.4 74 3.2 SE 13 17 7 9 1011.0 - 0.0
07/07:00am 24.9 25.5 20.3 75 3.0 SE 17 24 9 13 1010.8 - 0.0
07/06:30am 25.0 25.5 20.1 74 3.2 SE 17 22 9 12 1010.3 - 0.0
07/06:00am 25.1 25.8 20.5 75 3.0 SE 17 22 9 12 1010.0 - 0.0
07/05:30am 25.1 25.5 20.7 76 2.9 SE 19 26 10 14 1009.6 - 0.0
07/05:00am 25.0 25.9 20.9 78 2.7 SSE 17 24 9 13 1009.5 1009.4 0.0
07/04:30am 25.0 25.6 20.2 74 3.1 SSE 17 20 9 11 1009.5 - 0.0
07/04:00am 25.2 25.2 19.8 72 3.5 SE 19 24 10 13 1009.8 - 0.0
07/03:30am 25.3 25.1 19.7 71 3.6 SE 20 28 11 15 1009.8 - 0.0
07/03:00am 25.3 25.5 20.1 73 3.4 SE 19 24 10 13 1009.8 - 0.0
07/02:30am 25.4 25.2 19.8 71 3.6 SE 20 26 11 14 1010.0 - 0.0
07/02:00am 25.5 26.1 20.3 73 3.4 SE 17 26 9 14 1010.4 1010.3 0.0
07/01:30am 25.4 25.4 19.7 70 3.7 SE 19 26 10 14 1010.6 - 0.0
07/01:00am 25.8 25.4 20.1 71 3.7 SE 22 28 12 15 1010.8 - 0.0
07/12:30am 25.9 25.9 20.1 70 3.8 SE 20 24 11 13 1011.2 - 0.0
07/12:00am 25.9 26.0 20.4 71 3.6 SE 20 26 11 14 1011.3 - 0.0
 
Date/Time
WST
Temp
°C
App
Temp
°C
Dew
Point
°C
Rel
Hum
%
Delta-T
°C
Wind Press
QNH
hPa
Press
MSL
hPa
Rain since
9am
mm
Dir  Spd
km/h
Gust
km/h
Spd
kts
Gust
kts
06/11:30pm 26.0 25.3 20.2 70 3.8 SE 24 30 13 16 1011.4 - 0.0
06/11:00pm 26.1 25.2 19.8 68 4.1 SE 24 30 13 16 1011.5 1011.4 0.0
06/10:30pm 26.2 25.3 19.9 68 4.1 SE 24 33 13 18 1011.3 - 0.0
06/10:00pm 26.2 25.0 19.2 65 4.5 ESE 24 30 13 16 1011.2 - 0.0
06/09:30pm 26.3 24.6 19.0 64 4.7 ESE 26 32 14 17 1011.0 - 0.0
06/09:00pm 26.4 25.0 18.9 63 4.8 ESE 24 32 13 17 1010.7 - 0.0
06/08:30pm 26.2 25.5 19.6 67 4.3 ESE 22 32 12 17 1010.3 - 0.0
06/08:00pm 26.2 24.8 19.7 67 4.2 SE 26 32 14 17 1010.2 1010.1 0.0
06/07:30pm 26.3 24.6 19.8 67 4.2 SE 28 33 15 18 1010.0 - 0.0
06/07:00pm 26.5 24.9 20.1 68 4.2 SE 28 35 15 19 1009.8 - 0.0
06/06:30pm 26.8 25.9 20.6 69 4.1 SE 26 35 14 19 1009.6 - 0.0
06/06:00pm 26.3 25.6 21.0 72 3.5 SE 26 35 14 19 1009.4 - 0.0
06/05:30pm 27.2 26.6 21.3 70 3.9 SE 26 35 14 19 1009.1 - 0.0
06/05:00pm 27.1 26.6 21.4 71 3.8 SE 26 35 14 19 1009.3 1009.2 0.0
06/04:30pm 27.7 27.3 21.6 69 4.1 SE 26 33 14 18 1009.2 - 0.0
06/04:00pm 28.0 27.1 20.6 64 4.9 ESE 26 33 14 18 1009.4 - 0.0
06/03:30pm 27.8 27.2 21.2 67 4.4 ESE 26 33 14 18 1009.7 - 0.0
06/03:00pm 27.8 28.0 21.3 67 4.3 SE 22 30 12 16 1009.8 - 0.0
06/02:30pm 28.3 28.4 21.2 65 4.7 SE 22 30 12 16 1010.1 - 0.0
06/02:00pm 28.3 28.2 20.7 63 5.0 SE 22 32 12 17 1010.4 1010.3 0.0
06/01:30pm 28.1 27.7 20.9 65 4.8 SE 24 32 13 17 1010.6 - 0.0
06/01:00pm 28.5 28.2 21.1 64 4.9 SE 24 30 13 16 1011.0 - 0.0
06/12:30pm 28.4 28.0 20.9 64 5.0 SE 24 30 13 16 1011.2 - 0.0
06/12:00pm 27.9 27.1 20.8 65 4.7 SE 26 33 14 18 1011.6 - 0.0
06/11:30am 28.1 26.7 20.5 63 5.0 SE 28 33 15 18 1012.0 - 0.0
06/11:00am 27.3 26.3 20.4 66 4.5 SE 26 32 14 17 1012.2 1012.1 0.0
06/10:30am 27.4 25.7 19.9 63 4.9 SE 28 35 15 19 1012.2 - 0.0
06/10:00am 27.1 26.0 20.2 66 4.5 SE 26 35 14 19 1012.1 - 0.0
06/09:30am 26.5 24.6 20.1 68 4.2 SE 30 39 16 21 1012.1 - 0.0

Other Formats:

Comma delimited format used in spreadsheet applications
http://www.bom.gov.au/fwo/IDW60801/IDW60801.96996.axf

JavaScript Object Notation format (JSON) in row-major order
http://www.bom.gov.au/fwo/IDW60801/IDW60801.96996.json